createdAt,value
2022-10-09T00:01:44.027Z,4.03
2022-10-09T00:04:32.200Z,3.95
2022-10-09T00:07:20.944Z,4.35
2022-10-09T00:10:10.873Z,4.07
2022-10-09T00:12:59.250Z,4.03
2022-10-09T00:15:48.444Z,4.10
2022-10-09T00:18:37.994Z,4.18
2022-10-09T00:21:28.304Z,4.15
2022-10-09T00:24:16.477Z,3.83
2022-10-09T00:27:05.917Z,3.70
2022-10-09T00:29:54.624Z,4.00
2022-10-09T00:32:43.068Z,3.95
2022-10-09T00:35:31.623Z,4.10
2022-10-09T00:38:20.237Z,4.22
2022-10-09T00:41:09.467Z,4.03
2022-10-09T00:44:01.066Z,3.92
2022-10-09T00:46:51.361Z,4.30
2022-10-09T00:49:39.371Z,4.18
2022-10-09T00:52:28.372Z,3.85
2022-10-09T00:55:16.913Z,4.43
2022-10-09T00:58:05.887Z,4.15
2022-10-09T01:00:55.961Z,4.63
2022-10-09T01:03:44.186Z,4.75
2022-10-09T01:06:46.438Z,4.18
2022-10-09T01:09:43.483Z,4.50
2022-10-09T01:12:41.546Z,4.53
2022-10-09T01:15:34.818Z,4.78
2022-10-09T01:18:28.438Z,4.20
2022-10-09T01:21:21.050Z,4.38
2022-10-09T01:24:23.358Z,4.35
2022-10-09T01:27:16.567Z,4.68
2022-10-09T01:30:08.208Z,4.03
2022-10-09T01:32:57.910Z,4.25
2022-10-09T01:35:48.026Z,4.38
2022-10-09T01:38:38.648Z,4.38
2022-10-09T01:41:28.062Z,4.43
2022-10-09T01:44:22.235Z,4.57
2022-10-09T01:47:16.188Z,4.45
2022-10-09T01:50:10.402Z,4.32
2022-10-09T01:53:03.296Z,4.30
2022-10-09T01:55:57.809Z,4.88
2022-10-09T01:58:51.567Z,4.72
2022-10-09T02:01:43.364Z,4.63
2022-10-09T02:04:33.467Z,4.90
2022-10-09T02:07:22.108Z,4.25
2022-10-09T02:10:11.795Z,4.22
2022-10-09T02:13:05.126Z,4.70
2022-10-09T02:15:57.939Z,4.65
2022-10-09T02:18:51.135Z,4.60
2022-10-09T02:21:46.329Z,4.30
2022-10-09T02:24:35.423Z,4.78
2022-10-09T02:27:24.255Z,5.13
2022-10-09T02:30:15.119Z,4.25
2022-10-09T02:33:03.392Z,4.78
2022-10-09T02:35:53.453Z,4.88
2022-10-09T02:38:41.439Z,4.60
2022-10-09T02:41:30.547Z,4.72
2022-10-09T02:44:18.697Z,4.60
2022-10-09T02:47:07.142Z,4.95
2022-10-09T02:49:56.884Z,4.25
2022-10-09T02:52:47.176Z,4.40
2022-10-09T02:55:37.772Z,4.47
2022-10-09T02:58:26.891Z,4.70
2022-10-09T03:01:15.154Z,4.22
2022-10-09T03:04:04.404Z,4.85
2022-10-09T03:06:53.335Z,4.13
2022-10-09T03:09:43.447Z,4.45
2022-10-09T03:12:31.804Z,4.75
2022-10-09T03:15:20.320Z,4.95
2022-10-09T03:18:08.374Z,4.60
2022-10-09T03:20:57.011Z,4.57
2022-10-09T03:23:45.867Z,4.95
2022-10-09T03:26:35.958Z,3.97
2022-10-09T03:29:24.237Z,4.53
2022-10-09T03:32:12.680Z,4.70
2022-10-09T03:35:00.819Z,4.55
2022-10-09T03:37:50.567Z,4.72
2022-10-09T03:40:38.618Z,4.60
2022-10-09T03:43:28.895Z,4.22
2022-10-09T03:46:17.573Z,4.85
2022-10-09T03:49:06.162Z,4.43
2022-10-09T03:51:54.725Z,4.57
2022-10-09T03:54:43.394Z,4.70
2022-10-09T03:57:31.707Z,4.90
2022-10-09T04:00:21.678Z,4.97
2022-10-09T04:03:09.497Z,4.53
2022-10-09T04:05:58.413Z,4.78
2022-10-09T04:08:46.410Z,4.97
2022-10-09T04:11:34.813Z,4.68
2022-10-09T04:14:23.046Z,5.00
2022-10-09T04:17:13.017Z,5.18
2022-10-09T04:20:00.989Z,4.90
2022-10-09T04:22:50.156Z,4.72
2022-10-09T04:25:38.226Z,5.20
2022-10-09T04:28:27.087Z,4.75
2022-10-09T04:31:15.440Z,5.07
2022-10-09T04:34:05.698Z,5.10
2022-10-09T04:36:54.160Z,4.90
2022-10-09T04:39:43.167Z,4.88
2022-10-09T04:42:32.095Z,5.30
2022-10-09T04:45:20.677Z,5.03
2022-10-09T04:48:08.943Z,5.50
2022-10-09T04:50:58.766Z,5.30
2022-10-09T04:53:47.903Z,5.07
2022-10-09T04:56:36.441Z,5.95
2022-10-09T04:59:24.666Z,4.90
2022-10-09T05:02:13.411Z,5.55
2022-10-09T05:05:01.605Z,5.18
2022-10-09T05:07:51.579Z,5.18
2022-10-09T05:10:39.738Z,5.03
2022-10-09T05:13:30.969Z,4.80
2022-10-09T05:16:21.462Z,5.38
2022-10-09T05:19:10.150Z,5.40
2022-10-09T05:21:58.542Z,5.18
2022-10-09T05:24:48.374Z,5.70
2022-10-09T05:27:36.404Z,5.38
2022-10-09T05:30:24.587Z,4.80
2022-10-09T05:33:12.437Z,5.03
2022-10-09T05:36:02.355Z,5.20
2022-10-09T05:38:50.429Z,5.32
2022-10-09T05:41:40.322Z,4.90
2022-10-09T05:44:28.370Z,5.53
2022-10-09T05:47:19.843Z,5.40
2022-10-09T05:50:08.445Z,5.82
2022-10-09T05:52:57.373Z,5.10
2022-10-09T05:55:45.704Z,5.22
2022-10-09T05:58:35.563Z,5.35
2022-10-09T06:01:27.639Z,5.80
2022-10-09T06:04:17.954Z,6.50
2022-10-09T06:07:06.101Z,5.15
2022-10-09T06:09:54.543Z,4.88
2022-10-09T06:12:42.760Z,5.78
2022-10-09T06:15:32.778Z,5.68
2022-10-09T06:18:20.970Z,5.25
2022-10-09T06:21:10.166Z,5.50
2022-10-09T06:24:00.162Z,5.60
2022-10-09T06:26:48.470Z,5.22
2022-10-09T06:29:36.675Z,5.00
2022-10-09T06:32:26.367Z,5.03
2022-10-09T06:35:14.301Z,5.57
2022-10-09T06:38:03.027Z,5.72
2022-10-09T06:40:51.847Z,5.70
2022-10-09T06:43:41.549Z,5.80
2022-10-09T06:46:35.141Z,5.72
2022-10-09T06:49:25.333Z,5.80
2022-10-09T06:52:13.648Z,4.90
2022-10-09T06:55:02.122Z,5.80
2022-10-09T06:57:50.223Z,5.43
2022-10-09T07:00:38.669Z,5.40
2022-10-09T07:03:27.085Z,5.47
2022-10-09T07:06:18.976Z,5.57
2022-10-09T07:09:09.100Z,5.43
2022-10-09T07:11:57.733Z,5.35
2022-10-09T07:14:45.735Z,5.47
2022-10-09T07:17:34.903Z,5.18
2022-10-09T07:20:23.814Z,5.53
2022-10-09T07:23:13.779Z,5.80
2022-10-09T07:26:03.031Z,5.53
2022-10-09T07:28:52.479Z,5.57
2022-10-09T07:31:40.611Z,5.88
2022-10-09T07:34:29.410Z,5.88
2022-10-09T07:37:17.665Z,5.78
2022-10-09T07:40:08.118Z,5.60
2022-10-09T07:42:56.298Z,5.53
2022-10-09T07:45:45.210Z,5.00
2022-10-09T07:48:34.884Z,5.50
2022-10-09T07:51:25.161Z,6.03
2022-10-09T07:54:13.434Z,5.45
2022-10-09T07:57:03.019Z,5.68
2022-10-09T07:59:51.001Z,5.38
2022-10-09T08:02:39.327Z,6.05
2022-10-09T08:05:28.123Z,5.95
2022-10-09T08:08:16.451Z,5.22
2022-10-09T08:11:11.278Z,6.10
2022-10-09T08:14:00.991Z,6.15
2022-10-09T08:16:49.560Z,5.80
2022-10-09T08:19:37.886Z,5.30
2022-10-09T08:22:26.193Z,5.75
2022-10-09T08:25:14.527Z,5.70
2022-10-09T08:28:02.655Z,6.20
2022-10-09T08:30:52.306Z,5.50
2022-10-09T08:33:40.227Z,5.53
2022-10-09T08:36:29.991Z,6.07
2022-10-09T08:39:18.660Z,5.88
2022-10-09T08:42:07.516Z,5.38
2022-10-09T08:44:56.176Z,6.80
2022-10-09T08:47:49.347Z,5.50
2022-10-09T08:50:39.714Z,6.03
2022-10-09T08:53:35.354Z,6.32
2022-10-09T08:56:25.273Z,6.47
2022-10-09T08:59:13.935Z,6.05
2022-10-09T09:02:14.969Z,6.32
2022-10-09T09:05:16.259Z,5.70
2022-10-09T09:08:15.080Z,6.05
2022-10-09T09:11:21.271Z,6.93
2022-10-09T09:14:30.165Z,6.10
2022-10-09T09:17:31.696Z,6.30
2022-10-09T09:20:26.068Z,6.68
2022-10-09T09:23:17.010Z,6.03
2022-10-09T09:26:10.887Z,5.93
2022-10-09T09:29:03.729Z,6.63
2022-10-09T09:31:55.462Z,6.13
2022-10-09T09:34:44.392Z,6.20
2022-10-09T09:37:33.824Z,6.85
2022-10-09T09:40:37.113Z,6.45
2022-10-09T09:43:27.433Z,6.63
2022-10-09T09:46:21.598Z,7.10
2022-10-09T09:49:20.861Z,7.85
2022-10-09T09:52:10.670Z,8.45
2022-10-09T09:55:00.878Z,6.78
2022-10-09T09:57:50.399Z,6.82
2022-10-09T10:00:39.160Z,7.22
2022-10-09T10:03:28.015Z,13.88
2022-10-09T10:06:23.868Z,9.30
2022-10-09T10:09:16.341Z,7.38
2022-10-09T10:12:09.341Z,7.25
2022-10-09T10:14:57.662Z,7.10
2022-10-09T10:17:46.505Z,6.85
2022-10-09T10:20:44.476Z,18.67
2022-10-09T10:23:37.593Z,12.48
2022-10-09T10:26:29.619Z,17.20
2022-10-09T10:29:24.616Z,62.38
2022-10-09T10:32:17.109Z,70.72
2022-10-09T10:35:11.748Z,44.63
2022-10-09T10:38:06.469Z,29.45
2022-10-09T10:41:02.545Z,18.73
2022-10-09T10:43:54.864Z,12.60
2022-10-09T10:46:50.298Z,9.70
2022-10-09T10:49:38.805Z,7.47
2022-10-09T10:52:37.840Z,6.90
2022-10-09T10:55:42.427Z,7.28
2022-10-09T10:58:33.229Z,6.82
2022-10-09T11:01:32.830Z,6.57
2022-10-09T11:04:44.677Z,5.75
2022-10-09T11:07:42.519Z,6.20
2022-10-09T11:10:37.675Z,6.10
2022-10-09T11:13:30.498Z,5.68
2022-10-09T11:16:30.051Z,5.63
2022-10-09T11:19:45.570Z,6.55
2022-10-09T11:22:47.820Z,5.60
2022-10-09T11:25:43.626Z,6.03
2022-10-09T11:28:40.571Z,5.43
2022-10-09T11:31:35.157Z,5.00
2022-10-09T11:34:27.594Z,5.50
2022-10-09T11:37:19.942Z,5.32
2022-10-09T11:40:16.157Z,5.30
2022-10-09T11:43:12.768Z,5.53
2022-10-09T11:46:06.220Z,4.93
2022-10-09T11:49:03.022Z,5.57
2022-10-09T11:51:58.359Z,5.45
2022-10-09T11:54:46.459Z,5.38
2022-10-09T11:57:35.933Z,5.35
2022-10-09T12:00:33.070Z,4.88
2022-10-09T12:03:30.241Z,5.28
2022-10-09T12:06:22.387Z,5.18
2022-10-09T12:09:17.619Z,5.65
2022-10-09T12:12:08.225Z,5.40
2022-10-09T12:14:58.614Z,5.27
2022-10-09T12:17:50.045Z,5.00
2022-10-09T12:20:39.505Z,5.22
2022-10-09T12:23:32.604Z,4.82
2022-10-09T12:26:23.741Z,5.13
2022-10-09T12:29:22.878Z,4.78
2022-10-09T12:32:18.660Z,5.20
2022-10-09T12:35:21.224Z,4.38
2022-10-09T12:38:18.236Z,4.55
2022-10-09T12:41:09.566Z,4.75
2022-10-09T12:43:58.992Z,4.60
2022-10-09T12:46:47.716Z,4.13
2022-10-09T12:49:38.360Z,4.78
2022-10-09T12:52:30.241Z,4.35
2022-10-09T12:55:26.730Z,4.60
2022-10-09T12:58:21.487Z,4.45
2022-10-09T13:01:15.557Z,4.53
2022-10-09T13:04:06.210Z,4.22
2022-10-09T13:06:56.940Z,4.10
2022-10-09T13:09:45.099Z,4.55
2022-10-09T13:12:35.300Z,4.32
2022-10-09T13:15:33.606Z,4.80
2022-10-09T13:18:23.363Z,4.60
2022-10-09T13:21:24.556Z,4.53
2022-10-09T13:24:14.574Z,4.80
2022-10-09T13:27:05.241Z,4.13
2022-10-09T13:29:53.161Z,3.83
2022-10-09T13:32:41.481Z,4.18
2022-10-09T13:35:30.264Z,3.90
2022-10-09T13:38:20.449Z,4.53
2022-10-09T13:41:13.373Z,3.92
2022-10-09T13:44:01.758Z,4.47
2022-10-09T13:46:50.029Z,4.60
2022-10-09T13:49:38.922Z,4.25
2022-10-09T13:52:27.412Z,4.20
2022-10-09T13:55:17.204Z,4.65
2022-10-09T13:58:07.204Z,4.65
2022-10-09T14:00:56.284Z,4.10
2022-10-09T14:03:44.912Z,4.20
2022-10-09T14:06:36.218Z,4.18
2022-10-09T14:09:25.094Z,4.45
2022-10-09T14:12:13.512Z,4.55
2022-10-09T14:15:02.770Z,3.95
2022-10-09T14:17:51.863Z,4.25
2022-10-09T14:20:40.430Z,3.95
2022-10-09T14:23:28.950Z,4.07
2022-10-09T14:26:17.248Z,4.30
2022-10-09T14:29:05.652Z,4.35
2022-10-09T14:31:55.599Z,3.95
2022-10-09T14:34:44.078Z,4.35
2022-10-09T14:37:47.409Z,4.38
2022-10-09T14:40:37.954Z,4.80
2022-10-09T14:43:25.942Z,4.18
2022-10-09T14:46:17.174Z,4.20
2022-10-09T14:49:08.465Z,4.90
2022-10-09T14:51:57.110Z,4.07
2022-10-09T14:54:45.239Z,4.10
2022-10-09T14:57:35.574Z,4.53
2022-10-09T15:00:24.163Z,4.20
2022-10-09T15:03:12.612Z,4.35
2022-10-09T15:06:05.955Z,3.90
2022-10-09T15:09:03.132Z,4.25
2022-10-09T15:11:54.232Z,4.38
2022-10-09T15:14:42.616Z,4.15
2022-10-09T15:17:30.946Z,4.10
2022-10-09T15:20:19.479Z,4.22
2022-10-09T15:23:09.003Z,4.55
2022-10-09T15:25:59.007Z,4.13
2022-10-09T15:28:47.469Z,4.03
2022-10-09T15:31:37.804Z,4.38
2022-10-09T15:34:27.160Z,4.25
2022-10-09T15:37:15.434Z,3.78
2022-10-09T15:40:05.472Z,3.88
2022-10-09T15:42:54.144Z,4.03
2022-10-09T15:45:42.926Z,4.00
2022-10-09T15:48:31.347Z,4.25
2022-10-09T15:51:20.229Z,4.00
2022-10-09T15:54:09.240Z,3.97
2022-10-09T15:56:59.151Z,3.65
2022-10-09T15:59:47.303Z,3.78
2022-10-09T16:02:35.667Z,4.00
2022-10-09T16:05:23.944Z,3.90
2022-10-09T16:08:13.279Z,3.97
2022-10-09T16:11:04.399Z,4.35
2022-10-09T16:13:54.550Z,3.90
2022-10-09T16:16:42.959Z,3.88
2022-10-09T16:19:31.010Z,4.45
2022-10-09T16:22:19.385Z,4.50
2022-10-09T16:25:08.524Z,3.90
2022-10-09T16:27:57.537Z,3.90
2022-10-09T16:30:47.016Z,3.83
2022-10-09T16:33:35.303Z,3.83
2022-10-09T16:36:23.814Z,3.95
2022-10-09T16:39:12.518Z,3.75
2022-10-09T16:42:04.066Z,3.45
2022-10-09T16:44:52.314Z,3.92
2022-10-09T16:47:44.225Z,4.05
2022-10-09T16:50:33.130Z,3.78
2022-10-09T16:53:21.693Z,3.90
2022-10-09T16:56:12.294Z,3.72
2022-10-09T16:59:01.644Z,3.97
2022-10-09T17:01:50.687Z,3.83
2022-10-09T17:04:41.312Z,3.78
2022-10-09T17:07:30.471Z,3.60
2022-10-09T17:10:19.091Z,3.85
2022-10-09T17:13:07.928Z,3.30
2022-10-09T17:15:56.415Z,3.90
2022-10-09T17:18:45.394Z,3.75
2022-10-09T17:21:34.927Z,3.55
2022-10-09T17:24:24.000Z,3.60
2022-10-09T17:27:12.140Z,3.53
2022-10-09T17:30:00.620Z,3.83
2022-10-09T17:32:49.154Z,3.38
2022-10-09T17:35:41.452Z,3.33
2022-10-09T17:41:23.612Z,3.40
2022-10-09T17:44:11.967Z,3.42
2022-10-09T17:47:00.919Z,3.92
2022-10-09T17:49:48.872Z,3.85
2022-10-09T17:52:37.198Z,3.72
2022-10-09T17:55:27.573Z,3.70
2022-10-09T17:58:15.991Z,3.87
2022-10-09T18:01:06.774Z,3.40
2022-10-09T18:03:55.390Z,3.53
2022-10-09T18:06:43.811Z,3.53
2022-10-09T18:09:31.968Z,3.47
2022-10-09T18:12:21.724Z,3.75
2022-10-09T18:15:10.850Z,3.50
2022-10-09T18:17:59.427Z,3.70
2022-10-09T18:20:47.917Z,3.45
2022-10-09T18:23:37.002Z,3.28
2022-10-09T18:26:25.049Z,3.13
2022-10-09T18:29:15.031Z,3.60
2022-10-09T18:32:03.543Z,3.70
2022-10-09T18:34:51.683Z,3.85
2022-10-09T18:37:40.354Z,3.22
2022-10-09T18:40:29.026Z,3.55
2022-10-09T18:43:17.235Z,3.35
2022-10-09T18:46:07.120Z,3.60
2022-10-09T18:48:56.779Z,3.33
2022-10-09T18:51:47.531Z,3.70
2022-10-09T18:54:36.500Z,3.40
2022-10-09T18:57:26.656Z,3.85
2022-10-09T19:00:17.482Z,3.47
2022-10-09T19:03:08.998Z,3.00
2022-10-09T19:05:56.962Z,3.20
2022-10-09T19:08:45.211Z,3.40
2022-10-09T19:11:35.160Z,3.70
2022-10-09T19:14:24.008Z,3.30
2022-10-09T19:17:12.574Z,3.40
2022-10-09T19:20:02.366Z,3.22
2022-10-09T19:22:50.763Z,3.28
2022-10-09T19:25:38.937Z,3.70
2022-10-09T19:28:30.952Z,3.40
2022-10-09T19:31:19.794Z,3.33
2022-10-09T19:34:07.958Z,3.25
2022-10-09T19:36:57.624Z,3.35
2022-10-09T19:39:48.574Z,3.35
2022-10-09T19:42:36.731Z,3.37
2022-10-09T19:45:25.305Z,3.50
2022-10-09T19:48:13.619Z,3.28
2022-10-09T19:51:06.763Z,3.60
2022-10-09T19:53:56.763Z,2.67
2022-10-09T19:56:45.141Z,3.35
2022-10-09T19:59:33.715Z,3.20
2022-10-09T20:02:22.335Z,3.00
2022-10-09T20:05:11.372Z,3.40
2022-10-09T20:07:59.718Z,3.50
2022-10-09T20:10:49.579Z,3.45
2022-10-09T20:13:39.631Z,3.38
2022-10-09T20:16:32.270Z,3.33
2022-10-09T20:19:20.858Z,3.30
2022-10-09T20:22:08.945Z,3.35
2022-10-09T20:24:57.726Z,3.35
2022-10-09T20:27:47.939Z,3.60
2022-10-09T20:30:36.646Z,3.28
2022-10-09T20:33:25.437Z,3.53
2022-10-09T20:36:20.879Z,3.03
2022-10-09T20:39:13.172Z,3.20
2022-10-09T20:42:01.932Z,3.40
2022-10-09T20:44:51.938Z,2.88
2022-10-09T20:47:40.590Z,3.00
2022-10-09T20:50:29.428Z,3.38
2022-10-09T20:53:17.951Z,2.75
2022-10-09T20:56:08.457Z,3.25
2022-10-09T20:58:57.258Z,3.30
2022-10-09T21:01:47.273Z,3.22
2022-10-09T21:04:35.655Z,3.10
2022-10-09T21:07:25.968Z,3.17
2022-10-09T21:10:14.500Z,2.97
2022-10-09T21:13:03.075Z,2.80
2022-10-09T21:15:51.943Z,3.20
2022-10-09T21:18:42.299Z,3.13
2022-10-09T21:21:32.341Z,3.30
2022-10-09T21:24:20.866Z,3.17
2022-10-09T21:27:09.568Z,3.17
2022-10-09T21:29:58.867Z,2.80
2022-10-09T21:32:48.016Z,3.22
2022-10-09T21:35:41.898Z,3.00
2022-10-09T21:38:30.197Z,2.92
2022-10-09T21:41:18.545Z,3.28
2022-10-09T21:44:08.516Z,3.38
2022-10-09T21:46:57.621Z,3.15
2022-10-09T21:49:45.746Z,3.50
2022-10-09T21:52:35.411Z,3.20
2022-10-09T21:55:23.779Z,3.22
2022-10-09T21:58:12.545Z,3.15
2022-10-09T22:01:02.891Z,2.88
2022-10-09T22:03:51.364Z,3.10
2022-10-09T22:06:41.170Z,3.20
2022-10-09T22:09:30.995Z,3.40
2022-10-09T22:12:19.746Z,3.10
2022-10-09T22:15:08.850Z,3.03
2022-10-09T22:17:57.299Z,3.13
2022-10-09T22:20:47.661Z,3.08
2022-10-09T22:23:36.140Z,3.22
2022-10-09T22:26:26.086Z,3.30
2022-10-09T22:29:14.270Z,3.15
2022-10-09T22:32:02.429Z,3.55
2022-10-09T22:34:52.049Z,3.33
2022-10-09T22:37:40.334Z,2.85
2022-10-09T22:40:28.872Z,3.42
2022-10-09T22:43:18.427Z,3.03
2022-10-09T22:46:08.746Z,2.95
2022-10-09T22:48:57.455Z,3.53
2022-10-09T22:51:46.438Z,3.05
2022-10-09T22:54:34.686Z,3.33
2022-10-09T22:57:22.891Z,3.10
2022-10-09T23:00:14.139Z,3.17
2022-10-09T23:03:03.125Z,3.00
2022-10-09T23:05:51.051Z,3.42
2022-10-09T23:08:39.922Z,2.92
2022-10-09T23:11:28.259Z,3.20
2022-10-09T23:14:16.551Z,2.95
2022-10-09T23:17:06.457Z,2.83
2022-10-09T23:19:54.471Z,2.88
2022-10-09T23:22:43.020Z,2.67
2022-10-09T23:25:31.214Z,3.15
2022-10-09T23:28:20.438Z,2.72
2022-10-09T23:31:10.676Z,3.22
2022-10-09T23:34:01.818Z,3.10
2022-10-09T23:36:49.967Z,2.45
2022-10-09T23:39:38.447Z,2.90
2022-10-09T23:42:26.822Z,3.30
2022-10-09T23:45:16.165Z,3.05
2022-10-09T23:48:04.745Z,2.72
2022-10-09T23:50:55.759Z,3.03
2022-10-09T23:53:44.333Z,3.25
2022-10-09T23:56:34.848Z,2.92
2022-10-09T23:59:22.914Z,2.80
